createdAt,value
2019-05-10T00:00:41.520Z,0.00
2019-05-10T00:01:41.513Z,0.00
2019-05-10T00:02:41.511Z,0.00
2019-05-10T00:03:41.514Z,0.00
2019-05-10T00:04:41.506Z,0.00
2019-05-10T00:05:41.501Z,0.00
2019-05-10T00:06:41.517Z,0.00
2019-05-10T00:07:41.494Z,0.00
2019-05-10T00:08:41.492Z,0.00
2019-05-10T00:09:41.489Z,0.00
2019-05-10T00:10:41.483Z,0.00
2019-05-10T00:11:41.500Z,0.00
2019-05-10T00:12:41.480Z,0.00
2019-05-10T00:13:41.482Z,0.00
2019-05-10T00:14:41.472Z,0.00
2019-05-10T00:15:41.468Z,0.00
2019-05-10T00:16:41.466Z,0.00
2019-05-10T00:17:41.460Z,0.00
2019-05-10T00:18:41.459Z,0.00
2019-05-10T00:19:41.455Z,0.00
2019-05-10T00:20:41.453Z,0.00
2019-05-10T00:21:41.448Z,0.00
2019-05-10T00:22:41.445Z,0.00
2019-05-10T00:23:41.442Z,0.00
2019-05-10T00:24:41.438Z,0.00
2019-05-10T00:25:41.435Z,0.00
2019-05-10T00:26:41.431Z,0.00
2019-05-10T00:27:41.429Z,0.00
2019-05-10T00:28:41.426Z,0.00
2019-05-10T00:29:41.420Z,0.00
2019-05-10T00:30:41.419Z,0.00
2019-05-10T00:31:41.426Z,0.00
2019-05-10T00:32:41.412Z,0.00
2019-05-10T00:33:41.407Z,0.00
2019-05-10T00:34:41.405Z,0.00
2019-05-10T00:35:41.401Z,0.00
2019-05-10T00:36:41.397Z,0.00
2019-05-10T00:37:41.396Z,0.00
2019-05-10T00:38:41.391Z,0.00
2019-05-10T00:39:41.386Z,0.00
2019-05-10T00:40:41.419Z,0.00
2019-05-10T00:41:41.395Z,0.00
2019-05-10T00:42:41.378Z,0.00
2019-05-10T00:43:41.373Z,0.00
2019-05-10T00:44:41.369Z,0.00
2019-05-10T00:45:41.368Z,0.00
2019-05-10T00:46:41.457Z,0.00
2019-05-10T00:47:41.366Z,0.00
2019-05-10T00:48:41.355Z,0.00
2019-05-10T00:49:41.354Z,0.00
2019-05-10T00:50:41.345Z,0.00
2019-05-10T00:51:41.348Z,0.00
2019-05-10T00:52:41.343Z,0.00
2019-05-10T00:53:41.335Z,0.00
2019-05-10T00:54:41.337Z,0.00
2019-05-10T00:55:41.328Z,0.00
2019-05-10T00:56:41.325Z,0.00
2019-05-10T00:57:41.320Z,0.00
2019-05-10T00:58:41.320Z,0.00
2019-05-10T00:59:41.313Z,0.00
2019-05-10T01:00:41.310Z,0.00
2019-05-10T01:01:41.312Z,0.00
2019-05-10T01:02:41.304Z,0.00
2019-05-10T01:03:41.299Z,0.00
2019-05-10T01:04:41.294Z,0.00
2019-05-10T01:05:41.289Z,0.00
2019-05-10T01:06:41.286Z,0.00
2019-05-10T01:07:41.283Z,0.00
2019-05-10T01:08:41.280Z,0.00
2019-05-10T01:09:41.274Z,0.00
2019-05-10T01:10:41.271Z,0.00
2019-05-10T01:11:41.269Z,0.00
2019-05-10T01:12:41.265Z,0.00
2019-05-10T01:13:41.260Z,0.00
2019-05-10T01:14:41.254Z,0.00
2019-05-10T01:15:41.252Z,0.00
2019-05-10T01:16:41.249Z,0.00
2019-05-10T01:17:41.243Z,0.00
2019-05-10T01:18:41.239Z,0.00
2019-05-10T01:19:41.236Z,0.00
2019-05-10T01:20:41.231Z,0.00
2019-05-10T01:21:41.226Z,0.00
2019-05-10T01:22:41.223Z,0.00
2019-05-10T01:23:41.219Z,0.00
2019-05-10T01:24:41.214Z,0.00
2019-05-10T01:25:41.214Z,0.00
2019-05-10T01:26:41.209Z,0.00
2019-05-10T01:27:41.205Z,0.00
2019-05-10T01:28:41.200Z,0.00
2019-05-10T01:29:41.193Z,0.00
2019-05-10T01:30:41.191Z,0.00
2019-05-10T01:31:41.187Z,0.00
2019-05-10T01:32:41.181Z,0.00
2019-05-10T01:33:41.181Z,0.00
2019-05-10T01:34:41.202Z,0.00
2019-05-10T01:35:41.168Z,0.00
2019-05-10T01:36:41.165Z,0.00
2019-05-10T01:37:41.159Z,0.00
2019-05-10T01:38:41.155Z,0.00
2019-05-10T01:39:41.159Z,0.00
2019-05-10T01:40:41.147Z,0.00
2019-05-10T01:41:41.142Z,0.00
2019-05-10T01:42:41.138Z,0.00
2019-05-10T01:43:41.148Z,0.00
2019-05-10T01:44:41.130Z,0.00
2019-05-10T01:45:41.125Z,0.00
2019-05-10T01:46:41.122Z,0.00
2019-05-10T01:47:41.117Z,0.00
2019-05-10T01:48:41.115Z,0.00
2019-05-10T01:49:41.109Z,0.00
2019-05-10T01:50:41.105Z,0.00
2019-05-10T01:51:41.099Z,0.00
2019-05-10T01:52:41.096Z,0.00
2019-05-10T01:53:41.091Z,0.00
2019-05-10T01:54:41.089Z,0.00
2019-05-10T01:55:51.391Z,0.00
2019-05-10T01:56:41.081Z,0.00
2019-05-10T01:57:41.074Z,0.00
2019-05-10T01:58:41.072Z,0.00
2019-05-10T01:59:41.067Z,0.00
2019-05-10T02:00:41.086Z,0.00
2019-05-10T02:01:41.067Z,0.00
2019-05-10T02:02:41.058Z,0.00
2019-05-10T02:03:41.050Z,0.00
2019-05-10T02:04:41.046Z,0.00
2019-05-10T02:05:41.045Z,0.00
2019-05-10T02:06:41.042Z,0.00
2019-05-10T02:07:41.033Z,0.00
2019-05-10T02:08:41.044Z,0.00
2019-05-10T02:09:41.027Z,0.00
2019-05-10T02:10:41.026Z,0.00
2019-05-10T02:11:41.017Z,0.00
2019-05-10T02:12:41.014Z,0.00
2019-05-10T02:13:41.009Z,0.00
2019-05-10T02:14:41.006Z,0.00
2019-05-10T02:15:41.003Z,0.00
2019-05-10T02:16:40.999Z,0.00
2019-05-10T02:17:40.994Z,0.00
2019-05-10T02:18:40.988Z,0.00
2019-05-10T02:19:40.986Z,0.00
2019-05-10T02:20:40.982Z,0.00
2019-05-10T02:21:40.976Z,0.00
2019-05-10T02:22:40.971Z,0.00
2019-05-10T02:23:40.968Z,0.00
2019-05-10T02:24:40.966Z,0.00
2019-05-10T02:25:40.959Z,0.00
2019-05-10T02:26:40.956Z,0.00
2019-05-10T02:27:40.951Z,0.00
2019-05-10T02:28:40.950Z,0.00
2019-05-10T02:29:40.943Z,0.00
2019-05-10T02:30:40.940Z,0.00
2019-05-10T02:31:40.943Z,0.00
2019-05-10T02:32:40.935Z,0.00
2019-05-10T02:33:40.928Z,0.00
2019-05-10T02:34:40.924Z,0.00
2019-05-10T02:35:40.921Z,0.00
2019-05-10T02:36:40.915Z,0.00
2019-05-10T02:37:40.910Z,0.00
2019-05-10T02:38:40.912Z,0.00
2019-05-10T02:39:40.906Z,0.00
2019-05-10T02:40:40.898Z,0.00
2019-05-10T02:41:40.892Z,0.00
2019-05-10T02:42:40.896Z,0.00
2019-05-10T02:43:40.885Z,0.00
2019-05-10T02:44:40.883Z,0.00
2019-05-10T02:45:40.878Z,0.00
2019-05-10T02:46:40.873Z,0.00
2019-05-10T02:47:40.868Z,0.00
2019-05-10T02:48:40.865Z,0.00
2019-05-10T02:49:40.859Z,0.00
2019-05-10T02:50:40.856Z,0.00
2019-05-10T02:51:40.856Z,0.00
2019-05-10T02:52:40.848Z,0.00
2019-05-10T02:53:40.846Z,0.00
2019-05-10T02:54:40.915Z,0.00
2019-05-10T02:55:40.836Z,0.00
2019-05-10T02:56:40.832Z,0.00
2019-05-10T02:57:40.829Z,0.00
2019-05-10T02:58:40.824Z,0.00
2019-05-10T02:59:40.823Z,0.00
2019-05-10T03:00:40.816Z,0.00
2019-05-10T03:01:40.811Z,0.00
2019-05-10T03:02:40.807Z,0.00
2019-05-10T03:03:40.803Z,0.00
2019-05-10T03:04:40.801Z,0.00
2019-05-10T03:05:40.795Z,0.00
2019-05-10T03:06:40.790Z,0.00
2019-05-10T03:07:40.788Z,0.00
2019-05-10T03:08:40.784Z,0.00
2019-05-10T03:09:40.782Z,0.00
2019-05-10T03:10:40.774Z,0.00
2019-05-10T03:11:40.772Z,0.00
2019-05-10T03:12:40.767Z,0.00
2019-05-10T03:13:40.763Z,0.00
2019-05-10T03:14:40.759Z,0.00
2019-05-10T03:15:40.758Z,0.00
2019-05-10T03:16:40.753Z,0.00
2019-05-10T03:17:40.755Z,0.00
2019-05-10T03:18:40.741Z,0.00
2019-05-10T03:19:40.737Z,0.00
2019-05-10T03:20:40.734Z,0.00
2019-05-10T03:21:40.729Z,0.00
2019-05-10T03:22:40.725Z,0.00
2019-05-10T03:23:41.021Z,0.00
2019-05-10T03:24:40.717Z,4.00
2019-05-10T03:25:40.712Z,4.00
2019-05-10T03:26:50.487Z,0.00
2019-05-10T03:27:40.705Z,4.00
2019-05-10T03:28:40.727Z,4.00
2019-05-10T03:29:40.699Z,4.00
2019-05-10T03:30:40.701Z,0.00
2019-05-10T03:31:40.695Z,4.00
2019-05-10T03:32:40.686Z,4.00
2019-05-10T03:33:40.680Z,4.00
2019-05-10T03:34:40.676Z,8.00
2019-05-10T03:35:40.672Z,8.00
2019-05-10T03:36:40.668Z,8.00
2019-05-10T03:37:40.664Z,8.00
2019-05-10T03:38:40.667Z,4.00
2019-05-10T03:39:40.657Z,8.00
2019-05-10T03:40:40.652Z,8.00
2019-05-10T03:41:40.647Z,8.00
2019-05-10T03:42:40.644Z,12.00
2019-05-10T03:43:40.638Z,12.00
2019-05-10T03:44:40.639Z,12.00
2019-05-10T03:45:40.719Z,16.00
2019-05-10T03:46:40.628Z,16.00
2019-05-10T03:47:40.622Z,20.00
2019-05-10T03:48:40.622Z,20.00
2019-05-10T03:49:40.615Z,24.00
2019-05-10T03:50:40.612Z,20.00
2019-05-10T03:51:40.635Z,24.00
2019-05-10T03:52:40.603Z,28.00
2019-05-10T03:53:40.600Z,28.00
2019-05-10T03:54:40.595Z,32.00
2019-05-10T03:55:40.589Z,28.00
2019-05-10T03:56:40.586Z,28.00
2019-05-10T03:57:40.583Z,28.00
2019-05-10T03:58:40.578Z,36.00
2019-05-10T03:59:40.574Z,40.00
2019-05-10T04:00:40.572Z,44.00
2019-05-10T04:01:40.567Z,44.00
2019-05-10T04:02:40.563Z,44.00
2019-05-10T04:03:40.555Z,36.00
2019-05-10T04:04:40.555Z,36.00
2019-05-10T04:05:40.548Z,40.00
2019-05-10T04:06:40.553Z,40.00
2019-05-10T04:07:40.540Z,44.00
2019-05-10T04:08:40.541Z,48.00
2019-05-10T04:09:40.531Z,56.00
2019-05-10T04:10:40.530Z,64.00
2019-05-10T04:11:40.525Z,68.00
2019-05-10T04:12:40.524Z,80.00
2019-05-10T04:13:40.516Z,96.00
2019-05-10T04:14:40.514Z,88.00
2019-05-10T04:15:40.508Z,80.00
2019-05-10T04:16:40.504Z,84.00
2019-05-10T04:17:40.518Z,104.00
2019-05-10T04:18:40.504Z,112.00
2019-05-10T04:19:40.491Z,104.00
2019-05-10T04:20:40.489Z,116.00
2019-05-10T04:21:40.491Z,136.00
2019-05-10T04:22:40.484Z,160.00
2019-05-10T04:23:40.494Z,180.00
2019-05-10T04:24:40.470Z,196.00
2019-05-10T04:25:40.466Z,272.00
2019-05-10T04:26:40.461Z,296.00
2019-05-10T04:27:40.460Z,328.00
2019-05-10T04:28:40.469Z,312.00
2019-05-10T04:29:40.450Z,260.00
2019-05-10T04:30:40.451Z,196.00
2019-05-10T04:31:40.443Z,160.00
2019-05-10T04:32:40.440Z,156.00
2019-05-10T04:33:40.432Z,148.00
2019-05-10T04:34:40.438Z,116.00
2019-05-10T04:35:40.425Z,108.00
2019-05-10T04:36:40.421Z,136.00
2019-05-10T04:37:40.417Z,172.00
2019-05-10T04:38:40.417Z,152.00
2019-05-10T04:39:40.411Z,176.00
2019-05-10T04:40:40.404Z,268.00
2019-05-10T04:41:40.409Z,348.00
2019-05-10T04:42:40.402Z,388.00
2019-05-10T04:43:40.392Z,436.00
2019-05-10T04:44:40.390Z,412.00
2019-05-10T04:45:40.383Z,296.00
2019-05-10T04:46:40.380Z,344.00
2019-05-10T04:47:40.375Z,412.00
2019-05-10T04:48:40.370Z,376.00
2019-05-10T04:49:40.365Z,448.00
2019-05-10T04:50:40.363Z,524.00
2019-05-10T04:51:40.361Z,616.00
2019-05-10T04:52:40.354Z,756.00
2019-05-10T04:53:40.354Z,912.00
2019-05-10T04:54:40.345Z,1168.00
2019-05-10T04:55:40.341Z,1124.00
2019-05-10T04:56:40.337Z,1060.00
2019-05-10T04:57:50.020Z,844.00
2019-05-10T04:58:40.327Z,812.00
2019-05-10T04:59:40.323Z,952.00
2019-05-10T05:00:40.322Z,884.00
2019-05-10T05:01:40.315Z,1000.00
2019-05-10T05:02:40.312Z,832.00
2019-05-10T05:03:40.306Z,816.00
2019-05-10T05:04:40.303Z,696.00
2019-05-10T05:05:40.297Z,736.00
2019-05-10T05:06:40.297Z,892.00
2019-05-10T05:07:40.289Z,784.00
2019-05-10T05:08:40.288Z,944.00
2019-05-10T05:09:40.280Z,892.00
2019-05-10T05:10:40.276Z,1188.00
2019-05-10T05:11:40.274Z,1428.00
2019-05-10T05:12:40.273Z,1024.00
2019-05-10T05:13:40.262Z,804.00
2019-05-10T05:14:40.260Z,688.00
2019-05-10T05:15:40.262Z,692.00
2019-05-10T05:16:40.253Z,980.00
2019-05-10T05:17:40.246Z,660.00
2019-05-10T05:18:40.244Z,700.00
2019-05-10T05:19:40.928Z,1016.00
2019-05-10T05:20:40.235Z,1072.00
2019-05-10T05:21:40.229Z,820.00
2019-05-10T05:22:40.226Z,568.00
2019-05-10T05:23:40.227Z,404.00
2019-05-10T05:24:40.219Z,380.00
2019-05-10T05:25:41.665Z,508.00
2019-05-10T05:26:40.214Z,784.00
2019-05-10T05:27:40.205Z,988.00
2019-05-10T05:28:40.201Z,996.00
2019-05-10T05:29:40.197Z,980.00
2019-05-10T05:30:40.196Z,1280.00
2019-05-10T05:31:40.189Z,1288.00
2019-05-10T05:32:44.486Z,920.00
2019-05-10T05:33:40.180Z,716.00
2019-05-10T05:34:40.176Z,884.00
2019-05-10T05:35:40.180Z,968.00
2019-05-10T05:36:40.168Z,928.00
2019-05-10T05:37:40.163Z,904.00
2019-05-10T05:38:46.453Z,972.00
2019-05-10T05:39:40.156Z,1028.00
2019-05-10T05:40:40.152Z,1104.00
2019-05-10T05:41:48.945Z,1224.00
2019-05-10T05:42:40.146Z,1300.00
2019-05-10T05:43:45.667Z,1404.00
2019-05-10T05:44:40.135Z,1500.00
2019-05-10T05:45:40.130Z,1528.00
2019-05-10T05:46:40.138Z,1564.00
2019-05-10T05:47:42.293Z,1580.00
2019-05-10T05:48:40.728Z,1548.00
2019-05-10T05:49:40.115Z,1544.00
2019-05-10T05:50:40.113Z,1540.00
2019-05-10T05:51:40.106Z,1448.00
2019-05-10T05:52:40.106Z,1352.00
2019-05-10T05:53:42.210Z,1324.00
2019-05-10T05:54:40.095Z,1324.00
2019-05-10T05:55:40.088Z,1288.00
2019-05-10T05:56:44.636Z,1204.00
2019-05-10T05:57:40.087Z,1240.00
2019-05-10T05:58:44.442Z,1260.00
2019-05-10T05:59:40.073Z,1272.00
2019-05-10T06:00:44.815Z,1340.00
2019-05-10T06:01:40.064Z,1360.00
2019-05-10T06:02:44.732Z,1336.00
2019-05-10T06:03:40.058Z,1428.00
2019-05-10T06:04:40.903Z,1312.00
2019-05-10T06:05:40.048Z,1280.00
2019-05-10T06:06:40.044Z,1164.00
2019-05-10T06:07:40.042Z,1468.00
2019-05-10T06:08:40.037Z,1736.00
2019-05-10T06:09:40.032Z,1912.00
2019-05-10T06:10:43.633Z,2024.00
2019-05-10T06:11:40.026Z,1972.00
2019-05-10T06:12:44.685Z,1576.00
2019-05-10T06:13:40.018Z,1260.00
2019-05-10T06:14:43.180Z,1892.00
2019-05-10T06:15:40.009Z,1636.00
2019-05-10T06:16:44.916Z,1776.00
2019-05-10T06:17:40.004Z,2192.00
2019-05-10T06:18:41.677Z,2076.00
2019-05-10T06:19:39.995Z,2696.00
2019-05-10T06:20:44.447Z,3320.00
2019-05-10T06:21:39.986Z,2968.00
2019-05-10T06:22:45.594Z,3060.00
2019-05-10T06:23:39.978Z,2944.00
2019-05-10T06:24:39.973Z,2980.00
2019-05-10T06:25:42.417Z,2944.00
2019-05-10T06:26:39.965Z,3840.00
2019-05-10T06:27:40.924Z,4032.00
2019-05-10T06:28:59.833Z,3712.00
2019-05-10T06:29:42.914Z,3168.00
2019-05-10T06:30:39.951Z,3444.00
2019-05-10T06:31:39.948Z,3312.00
2019-05-10T06:32:39.946Z,3692.00
2019-05-10T06:33:44.843Z,3788.00
2019-05-10T06:34:40.307Z,3624.00
2019-05-10T06:35:39.931Z,3024.00
2019-05-10T06:36:39.940Z,2448.00
2019-05-10T06:37:39.922Z,2012.00
2019-05-10T06:38:39.921Z,1828.00
2019-05-10T06:39:39.917Z,2004.00
2019-05-10T06:40:46.843Z,2524.00
2019-05-10T06:41:39.909Z,3008.00
2019-05-10T06:42:39.904Z,2684.00
2019-05-10T06:43:39.902Z,2796.00
2019-05-10T06:44:39.898Z,3160.00
2019-05-10T06:45:39.892Z,3556.00
2019-05-10T06:46:39.896Z,4112.00
2019-05-10T06:47:41.982Z,4528.00
2019-05-10T06:48:39.882Z,4608.00
2019-05-10T06:49:41.032Z,4828.00
2019-05-10T06:50:39.874Z,5612.00
2019-05-10T06:51:42.925Z,6076.00
2019-05-10T06:52:39.877Z,6840.00
2019-05-10T06:53:41.599Z,7688.00
2019-05-10T06:54:39.859Z,8152.00
2019-05-10T06:55:39.856Z,9760.00
2019-05-10T06:56:39.852Z,9744.00
2019-05-10T06:57:39.848Z,9556.00
2019-05-10T06:58:39.847Z,9836.00
2019-05-10T06:59:39.842Z,10116.00
2019-05-10T07:00:44.638Z,9504.00
2019-05-10T07:01:45.928Z,10172.00
2019-05-10T07:02:39.834Z,12308.00
2019-05-10T07:03:39.828Z,11740.00
2019-05-10T07:04:41.201Z,8916.00
2019-05-10T07:05:39.822Z,7300.00
2019-05-10T07:06:39.818Z,5268.00
2019-05-10T07:07:44.793Z,4368.00
2019-05-10T07:08:44.405Z,4852.00
2019-05-10T07:10:01.650Z,6800.00
2019-05-10T07:10:39.806Z,12016.00
2019-05-10T07:11:39.808Z,12468.00
2019-05-10T07:12:39.833Z,10136.00
2019-05-10T07:13:40.374Z,12904.00
2019-05-10T07:14:45.583Z,12500.00
2019-05-10T07:15:42.051Z,9988.00
2019-05-10T07:16:39.788Z,11088.00
2019-05-10T07:17:45.635Z,10824.00
2019-05-10T07:18:39.782Z,8560.00
2019-05-10T07:19:41.967Z,7564.00
2019-05-10T07:20:42.941Z,8240.00
2019-05-10T07:21:44.931Z,8252.00
2019-05-10T07:22:39.771Z,9280.00
2019-05-10T07:23:45.180Z,10964.00
2019-05-10T07:24:39.770Z,9876.00
2019-05-10T07:25:43.839Z,9332.00
2019-05-10T07:26:39.760Z,8984.00
2019-05-10T07:27:39.759Z,9988.00
2019-05-10T07:28:39.755Z,16332.00
2019-05-10T07:29:43.276Z,12712.00
2019-05-10T07:30:41.425Z,11116.00
2019-05-10T07:31:39.749Z,15724.00
2019-05-10T07:32:39.746Z,15112.00
2019-05-10T07:33:40.270Z,13388.00
2019-05-10T07:34:39.744Z,13200.00
2019-05-10T07:35:39.826Z,12184.00
2019-05-10T07:36:39.739Z,12624.00
2019-05-10T07:37:39.734Z,8576.00
2019-05-10T07:38:39.733Z,6000.00
2019-05-10T07:39:39.734Z,4744.00
2019-05-10T07:40:39.727Z,3880.00
2019-05-10T07:41:39.733Z,3456.00
2019-05-10T07:42:44.978Z,3160.00
2019-05-10T07:43:39.722Z,2892.00
2019-05-10T07:44:41.583Z,2920.00
2019-05-10T07:45:39.735Z,2888.00
2019-05-10T07:46:40.042Z,3344.00
2019-05-10T07:47:39.713Z,3440.00
2019-05-10T07:48:41.345Z,3228.00
2019-05-10T07:49:39.708Z,3148.00
2019-05-10T07:50:42.611Z,2876.00
2019-05-10T07:51:39.704Z,2604.00
2019-05-10T07:52:43.455Z,2476.00
2019-05-10T07:53:39.702Z,2236.00
2019-05-10T07:54:45.024Z,2232.00
2019-05-10T07:55:39.695Z,2312.00
2019-05-10T07:56:45.879Z,2064.00
2019-05-10T07:57:39.688Z,1872.00
2019-05-10T07:58:43.153Z,1752.00
2019-05-10T07:59:49.890Z,1612.00
2019-05-10T08:00:44.269Z,1504.00
2019-05-10T08:01:39.679Z,1432.00
2019-05-10T08:02:44.125Z,1428.00
2019-05-10T08:03:44.226Z,1556.00
2019-05-10T08:04:39.671Z,1612.00
2019-05-10T08:05:39.666Z,1588.00
2019-05-10T08:06:43.808Z,1732.00
2019-05-10T08:07:39.662Z,1968.00
2019-05-10T08:08:39.659Z,2320.00
2019-05-10T08:09:44.851Z,2556.00
2019-05-10T08:10:39.659Z,2696.00
2019-05-10T08:11:39.649Z,2908.00
2019-05-10T08:12:44.002Z,3088.00
2019-05-10T08:13:39.644Z,3260.00
2019-05-10T08:14:44.335Z,3440.00
2019-05-10T08:15:39.635Z,3484.00
2019-05-10T08:16:39.632Z,3472.00
2019-05-10T08:17:41.031Z,3524.00
2019-05-10T08:18:42.156Z,3556.00
2019-05-10T08:19:39.623Z,3536.00
2019-05-10T08:20:49.370Z,3428.00
2019-05-10T08:21:41.837Z,3288.00
2019-05-10T08:22:42.303Z,3116.00
2019-05-10T08:23:41.000Z,3124.00
2019-05-10T08:24:44.566Z,3540.00
2019-05-10T08:25:44.328Z,4040.00
2019-05-10T08:26:39.601Z,4252.00
2019-05-10T08:27:44.045Z,4356.00
2019-05-10T08:28:42.241Z,4424.00
2019-05-10T08:29:39.592Z,4180.00
2019-05-10T08:30:42.510Z,3748.00
2019-05-10T08:31:41.014Z,3560.00
2019-05-10T08:32:39.582Z,3564.00
2019-05-10T08:33:46.354Z,3652.00
2019-05-10T08:34:41.973Z,3740.00
2019-05-10T08:35:43.409Z,3816.00
2019-05-10T08:36:43.443Z,3880.00
2019-05-10T08:37:39.565Z,3852.00
2019-05-10T08:38:44.515Z,3784.00
2019-05-10T08:39:45.144Z,3744.00
2019-05-10T08:40:39.561Z,3796.00
2019-05-10T08:41:39.552Z,4060.00
2019-05-10T08:42:45.409Z,4588.00
2019-05-10T08:43:40.804Z,5292.00
2019-05-10T08:44:39.545Z,5664.00
2019-05-10T08:45:45.012Z,5660.00
2019-05-10T08:46:41.430Z,5712.00
2019-05-10T08:47:39.533Z,5940.00
2019-05-10T08:48:46.130Z,6336.00
2019-05-10T08:49:53.839Z,6816.00
2019-05-10T08:50:49.459Z,7304.00
2019-05-10T08:51:43.788Z,7980.00
2019-05-10T08:52:42.098Z,8764.00
2019-05-10T08:53:41.855Z,9444.00
2019-05-10T08:54:42.129Z,9196.00
2019-05-10T08:55:39.514Z,9064.00
2019-05-10T08:56:39.545Z,9464.00
2019-05-10T08:57:44.540Z,10692.00
2019-05-10T08:58:41.966Z,13028.00
2019-05-10T08:59:39.501Z,14564.00
2019-05-10T09:00:50.592Z,15344.00
2019-05-10T09:01:46.504Z,20160.00
2019-05-10T09:02:39.493Z,15428.00
2019-05-10T09:03:41.754Z,14088.00
2019-05-10T09:04:42.754Z,12556.00
2019-05-10T09:05:40.023Z,10636.00
2019-05-10T09:06:41.884Z,10120.00
2019-05-10T09:07:39.483Z,11884.00
2019-05-10T09:08:39.480Z,12732.00
2019-05-10T09:09:45.712Z,11756.00
2019-05-10T09:10:39.477Z,11760.00
2019-05-10T09:11:44.009Z,14592.00
2019-05-10T09:12:44.195Z,15168.00
2019-05-10T09:13:42.546Z,15244.00
2019-05-10T09:14:39.473Z,15208.00
2019-05-10T09:15:43.230Z,14140.00
2019-05-10T09:16:44.092Z,13264.00
2019-05-10T09:17:39.465Z,13136.00
2019-05-10T09:18:46.206Z,13668.00
2019-05-10T09:19:43.421Z,12660.00
2019-05-10T09:20:41.904Z,11492.00
2019-05-10T09:21:41.319Z,11516.00
2019-05-10T09:22:39.466Z,11144.00
2019-05-10T09:23:39.461Z,10728.00
2019-05-10T09:24:43.111Z,10408.00
2019-05-10T09:25:39.457Z,9604.00
2019-05-10T09:26:41.695Z,10136.00
2019-05-10T09:27:39.453Z,10728.00
2019-05-10T09:28:39.453Z,10784.00
2019-05-10T09:29:39.451Z,11028.00
2019-05-10T09:30:55.776Z,11108.00
2019-05-10T09:31:44.216Z,10848.00
2019-05-10T09:32:40.003Z,10532.00
2019-05-10T09:33:41.022Z,11288.00
2019-05-10T09:34:39.447Z,11488.00
2019-05-10T09:35:46.823Z,11432.00
2019-05-10T09:36:42.699Z,11056.00
2019-05-10T09:37:41.879Z,10436.00
2019-05-10T09:38:42.957Z,10968.00
2019-05-10T09:39:39.444Z,11288.00
2019-05-10T09:40:42.562Z,10252.00
2019-05-10T09:41:39.442Z,10176.00
2019-05-10T09:42:42.686Z,11156.00
2019-05-10T09:43:40.441Z,10872.00
2019-05-10T09:44:39.441Z,9988.00
2019-05-10T09:45:39.438Z,9284.00
2019-05-10T09:46:39.437Z,8880.00
2019-05-10T09:47:39.443Z,8676.00
2019-05-10T09:48:39.437Z,8724.00
2019-05-10T09:49:39.435Z,8476.00
2019-05-10T09:50:42.082Z,8024.00
2019-05-10T09:51:39.435Z,7836.00
2019-05-10T09:52:39.436Z,8004.00
2019-05-10T09:53:39.436Z,7872.00
2019-05-10T09:54:39.432Z,7560.00
2019-05-10T09:55:39.432Z,7164.00
2019-05-10T09:56:44.281Z,6876.00
2019-05-10T09:57:39.436Z,6260.00
2019-05-10T09:58:39.467Z,5608.00
2019-05-10T09:59:39.426Z,5668.00
2019-05-10T10:00:39.426Z,6164.00
2019-05-10T10:01:39.425Z,5928.00
2019-05-10T10:02:40.513Z,5400.00
2019-05-10T10:03:43.039Z,4840.00
2019-05-10T10:04:39.424Z,4532.00
2019-05-10T10:05:40.326Z,4476.00
2019-05-10T10:06:41.950Z,4776.00
2019-05-10T10:07:39.419Z,6036.00
2019-05-10T10:08:43.599Z,7716.00
2019-05-10T10:09:44.479Z,9608.00
2019-05-10T10:10:39.416Z,11204.00
2019-05-10T10:11:39.415Z,10668.00
2019-05-10T10:12:39.413Z,9520.00
2019-05-10T10:13:43.459Z,8616.00
2019-05-10T10:14:43.167Z,7944.00
2019-05-10T10:15:39.411Z,8212.00
2019-05-10T10:16:39.409Z,8624.00
2019-05-10T10:17:42.335Z,8588.00
2019-05-10T10:18:39.409Z,7840.00
2019-05-10T10:19:40.668Z,7296.00
2019-05-10T10:20:43.438Z,7136.00
2019-05-10T10:21:39.402Z,6844.00
2019-05-10T10:22:43.537Z,6432.00
2019-05-10T10:23:39.427Z,6032.00
2019-05-10T10:24:41.148Z,5780.00
2019-05-10T10:25:40.452Z,5736.00
2019-05-10T10:26:39.398Z,5848.00
2019-05-10T10:27:39.623Z,6012.00
2019-05-10T10:28:39.821Z,6260.00
2019-05-10T10:29:39.397Z,6564.00
2019-05-10T10:30:39.394Z,6788.00
2019-05-10T10:31:50.902Z,7816.00
2019-05-10T10:32:39.402Z,9092.00
2019-05-10T10:33:42.621Z,9608.00
2019-05-10T10:34:42.934Z,9556.00
2019-05-10T10:35:39.412Z,9424.00
2019-05-10T10:36:42.781Z,9632.00
2019-05-10T10:37:39.384Z,9784.00
2019-05-10T10:38:45.186Z,10432.00
2019-05-10T10:39:39.384Z,10696.00
2019-05-10T10:40:44.776Z,10244.00
2019-05-10T10:41:39.380Z,9828.00
2019-05-10T10:42:39.379Z,9768.00
2019-05-10T10:43:39.379Z,10664.00
2019-05-10T10:44:39.379Z,11160.00
2019-05-10T10:45:39.377Z,11220.00
2019-05-10T10:46:39.376Z,11320.00
2019-05-10T10:47:39.376Z,11176.00
2019-05-10T10:48:43.669Z,10652.00
2019-05-10T10:49:39.374Z,10320.00
2019-05-10T10:50:44.160Z,10152.00
2019-05-10T10:51:39.373Z,10236.00
2019-05-10T10:52:39.376Z,9776.00
2019-05-10T10:53:39.372Z,9292.00
2019-05-10T10:54:39.842Z,9016.00
2019-05-10T10:55:40.276Z,9136.00
2019-05-10T10:56:39.370Z,9192.00
2019-05-10T10:57:39.369Z,8924.00
2019-05-10T10:58:39.369Z,8944.00
2019-05-10T10:59:39.374Z,9156.00
2019-05-10T11:00:39.460Z,9200.00
2019-05-10T11:01:50.049Z,8996.00
2019-05-10T11:02:41.462Z,8748.00
2019-05-10T11:03:39.367Z,8612.00
2019-05-10T11:04:40.711Z,8132.00
2019-05-10T11:05:39.366Z,7852.00
2019-05-10T11:06:39.364Z,8580.00
2019-05-10T11:07:44.341Z,8360.00
2019-05-10T11:08:41.140Z,8572.00
2019-05-10T11:09:40.980Z,8556.00
2019-05-10T11:10:40.494Z,8356.00
2019-05-10T11:11:43.890Z,7476.00
2019-05-10T11:12:41.242Z,5820.00
2019-05-10T11:13:44.951Z,4228.00
2019-05-10T11:14:41.028Z,3684.00
2019-05-10T11:15:41.798Z,4000.00
2019-05-10T11:16:41.101Z,4472.00
2019-05-10T11:17:40.798Z,4256.00
2019-05-10T11:18:41.674Z,3832.00
2019-05-10T11:19:41.602Z,3844.00
2019-05-10T11:20:42.005Z,4512.00
2019-05-10T11:21:41.334Z,5888.00
2019-05-10T11:22:41.926Z,7208.00
2019-05-10T11:23:41.830Z,8896.00
2019-05-10T11:24:39.353Z,10148.00
2019-05-10T11:25:42.666Z,11388.00
2019-05-10T11:26:40.961Z,12712.00
2019-05-10T11:27:41.415Z,12764.00
2019-05-10T11:28:43.898Z,13512.00
2019-05-10T11:29:41.664Z,13880.00
2019-05-10T11:30:39.345Z,14328.00
2019-05-10T11:31:41.390Z,14428.00
2019-05-10T11:32:41.655Z,13824.00
2019-05-10T11:33:41.581Z,13332.00
2019-05-10T11:34:39.340Z,12668.00
2019-05-10T11:35:41.543Z,13368.00
2019-05-10T11:36:40.415Z,11740.00
2019-05-10T11:37:42.137Z,11572.00
2019-05-10T11:38:41.739Z,10908.00
2019-05-10T11:39:45.287Z,11068.00
2019-05-10T11:40:41.705Z,10168.00
2019-05-10T11:41:39.334Z,9756.00
2019-05-10T11:42:43.796Z,9904.00
2019-05-10T11:43:41.708Z,9976.00
2019-05-10T11:44:42.772Z,9916.00
2019-05-10T11:45:41.990Z,10120.00
2019-05-10T11:46:41.488Z,9868.00
2019-05-10T11:47:40.934Z,8888.00
2019-05-10T11:48:41.898Z,7812.00
2019-05-10T11:49:40.688Z,7896.00
2019-05-10T11:50:41.118Z,7416.00
2019-05-10T11:51:41.365Z,6828.00
2019-05-10T11:52:40.747Z,6724.00
2019-05-10T11:53:41.405Z,6708.00
2019-05-10T11:54:41.561Z,6300.00
2019-05-10T11:55:41.122Z,5884.00
2019-05-10T11:56:41.017Z,6312.00
2019-05-10T11:57:43.818Z,7632.00
2019-05-10T11:58:45.997Z,8792.00
2019-05-10T11:59:41.461Z,9124.00
2019-05-10T12:00:41.305Z,8832.00
2019-05-10T12:01:41.838Z,8568.00
2019-05-10T12:03:01.039Z,8880.00
2019-05-10T12:03:42.208Z,9288.00
2019-05-10T12:04:43.035Z,10112.00
2019-05-10T12:05:42.299Z,11292.00
2019-05-10T12:06:41.283Z,11852.00
2019-05-10T12:07:45.481Z,11688.00
2019-05-10T12:08:41.698Z,11832.00
2019-05-10T12:09:41.866Z,12100.00
2019-05-10T12:10:43.090Z,12036.00
2019-05-10T12:11:43.773Z,11844.00
2019-05-10T12:12:54.630Z,11928.00
2019-05-10T12:13:39.329Z,11540.00
2019-05-10T12:14:46.194Z,11104.00
2019-05-10T12:15:42.949Z,10636.00
2019-05-10T12:16:42.021Z,11068.00
2019-05-10T12:17:46.423Z,10796.00
2019-05-10T12:18:46.498Z,10888.00
2019-05-10T12:19:47.591Z,10944.00
2019-05-10T12:20:54.357Z,10812.00
2019-05-10T12:21:39.324Z,10764.00
2019-05-10T12:22:42.061Z,10744.00
2019-05-10T12:23:50.036Z,10304.00
2019-05-10T12:24:53.797Z,10128.00
2019-05-10T12:25:53.082Z,10372.00
2019-05-10T12:27:45.148Z,11656.00